createdAt,value
2022-11-06T00:01:14.504Z,96.07
2022-11-06T00:03:43.433Z,96.60
2022-11-06T00:06:28.192Z,96.08
2022-11-06T00:08:54.411Z,96.29
2022-11-06T00:11:20.625Z,98.45
2022-11-06T00:13:52.284Z,100.00
2022-11-06T00:16:18.486Z,100.00
2022-11-06T00:18:44.672Z,100.00
2022-11-06T00:21:10.909Z,98.64
2022-11-06T00:23:37.135Z,98.10
2022-11-06T00:26:03.329Z,97.66
2022-11-06T00:28:29.537Z,97.07
2022-11-06T00:30:55.730Z,97.08
2022-11-06T00:33:21.909Z,96.86
2022-11-06T00:35:48.115Z,97.39
2022-11-06T00:38:14.656Z,96.64
2022-11-06T00:40:41.159Z,96.35
2022-11-06T00:43:07.346Z,97.22
2022-11-06T00:45:33.522Z,97.57
2022-11-06T00:47:59.942Z,97.54
2022-11-06T00:50:26.502Z,96.45
2022-11-06T00:52:53.305Z,97.36
2022-11-06T00:55:19.476Z,96.71
2022-11-06T00:57:45.656Z,96.00
2022-11-06T01:00:11.839Z,95.62
2022-11-06T01:02:38.424Z,95.55
2022-11-06T01:05:04.731Z,96.28
2022-11-06T01:07:30.926Z,95.93
2022-11-06T01:09:57.109Z,95.92
2022-11-06T01:12:23.334Z,96.42
2022-11-06T01:14:49.523Z,96.47
2022-11-06T01:17:15.742Z,96.16
2022-11-06T01:19:41.913Z,95.57
2022-11-06T01:22:08.108Z,96.24
2022-11-06T01:24:34.902Z,96.21
2022-11-06T01:29:47.343Z,97.45
2022-11-06T01:32:13.521Z,97.29
2022-11-06T01:34:39.730Z,96.72
2022-11-06T01:37:06.379Z,97.40
2022-11-06T01:39:34.410Z,96.62
2022-11-06T01:42:00.967Z,97.54
2022-11-06T01:44:27.149Z,97.32
2022-11-06T01:46:53.509Z,97.20
2022-11-06T01:49:19.703Z,96.82
2022-11-06T01:51:45.888Z,96.75
2022-11-06T01:54:12.166Z,96.71
2022-11-06T01:56:38.344Z,96.32
2022-11-06T01:59:04.526Z,96.62
2022-11-06T02:01:30.780Z,96.18
2022-11-06T02:03:57.062Z,95.83
2022-11-06T02:06:23.248Z,96.27
2022-11-06T02:08:49.431Z,96.40
2022-11-06T02:11:15.642Z,96.65
2022-11-06T02:13:41.846Z,96.35
2022-11-06T02:16:09.544Z,96.23
2022-11-06T02:18:36.011Z,96.13
2022-11-06T02:21:02.192Z,95.75
2022-11-06T02:23:28.402Z,96.33
2022-11-06T02:25:54.823Z,95.74
2022-11-06T02:28:21.009Z,97.67
2022-11-06T02:30:47.189Z,96.95
2022-11-06T02:33:13.369Z,96.51
2022-11-06T02:35:39.594Z,96.21
2022-11-06T02:38:05.784Z,96.17
2022-11-06T02:40:33.130Z,96.34
2022-11-06T02:42:59.387Z,96.52
2022-11-06T02:45:25.578Z,95.75
2022-11-06T02:47:51.809Z,95.63
2022-11-06T02:50:18.005Z,95.98
2022-11-06T02:52:44.220Z,95.74
2022-11-06T02:55:10.401Z,95.94
2022-11-06T02:57:36.740Z,95.55
2022-11-06T03:00:03.060Z,95.24
2022-11-06T03:02:29.285Z,94.92
2022-11-06T03:04:55.574Z,95.58
2022-11-06T03:07:21.767Z,95.80
2022-11-06T03:09:47.955Z,95.81
2022-11-06T03:12:14.132Z,96.11
2022-11-06T03:14:40.322Z,95.89
2022-11-06T03:17:06.507Z,96.34
2022-11-06T03:19:32.684Z,96.77
2022-11-06T03:21:58.923Z,96.44
2022-11-06T03:24:30.898Z,96.34
2022-11-06T03:26:57.488Z,96.05
2022-11-06T03:29:23.706Z,97.33
2022-11-06T03:31:49.902Z,96.92
2022-11-06T03:34:16.090Z,96.58
2022-11-06T03:36:42.287Z,95.91
2022-11-06T03:39:08.461Z,95.97
2022-11-06T03:41:34.722Z,95.92
2022-11-06T03:44:00.953Z,96.09
2022-11-06T03:46:27.146Z,95.55
2022-11-06T03:48:53.399Z,96.05
2022-11-06T03:51:19.584Z,96.03
2022-11-06T03:53:45.792Z,96.60
2022-11-06T03:56:11.982Z,96.56
2022-11-06T03:58:38.208Z,96.76
2022-11-06T04:01:04.404Z,96.40
2022-11-06T04:03:30.590Z,96.27
2022-11-06T04:05:56.773Z,96.25
2022-11-06T04:08:41.922Z,96.68
2022-11-06T04:11:26.667Z,96.59
2022-11-06T04:14:00.748Z,96.70
2022-11-06T04:16:26.969Z,96.74
2022-11-06T04:18:53.146Z,97.02
2022-11-06T04:21:22.370Z,97.09
2022-11-06T04:24:08.505Z,96.64
2022-11-06T04:26:37.466Z,96.96
2022-11-06T04:29:03.656Z,96.66
2022-11-06T04:31:29.899Z,96.05
2022-11-06T04:33:56.079Z,96.27
2022-11-06T04:36:22.258Z,96.09
2022-11-06T04:38:48.443Z,96.09
2022-11-06T04:41:14.654Z,96.03
2022-11-06T04:43:40.976Z,97.02
2022-11-06T04:46:07.153Z,97.81
2022-11-06T04:48:33.332Z,97.22
2022-11-06T04:50:59.529Z,96.86
2022-11-06T04:53:25.749Z,96.67
2022-11-06T04:55:51.958Z,96.42
2022-11-06T04:58:18.147Z,96.60
2022-11-06T05:00:44.372Z,96.60
2022-11-06T05:03:10.568Z,96.36
2022-11-06T05:05:36.760Z,96.84
2022-11-06T05:08:02.943Z,97.04
2022-11-06T05:10:29.148Z,96.94
2022-11-06T05:12:55.339Z,97.17
2022-11-06T05:15:21.528Z,96.61
2022-11-06T05:17:47.833Z,96.66
2022-11-06T05:20:14.008Z,97.23
2022-11-06T05:22:58.798Z,97.65
2022-11-06T05:25:24.981Z,97.80
2022-11-06T05:27:51.199Z,97.56
2022-11-06T05:30:17.392Z,98.54
2022-11-06T05:32:43.581Z,97.72
2022-11-06T05:35:09.783Z,97.75
2022-11-06T05:37:35.962Z,98.02
2022-11-06T05:40:02.284Z,98.34
2022-11-06T05:42:28.464Z,98.01
2022-11-06T05:44:54.788Z,98.52
2022-11-06T05:47:20.978Z,98.40
2022-11-06T05:49:47.171Z,99.12
2022-11-06T05:52:13.358Z,97.98
2022-11-06T05:54:39.532Z,98.02
2022-11-06T05:57:05.733Z,98.05
2022-11-06T05:59:31.936Z,97.66
2022-11-06T06:01:59.539Z,97.76
2022-11-06T06:04:25.898Z,98.08
2022-11-06T06:06:52.079Z,98.45
2022-11-06T06:09:18.273Z,98.65
2022-11-06T06:11:44.453Z,99.36
2022-11-06T06:14:10.630Z,98.33
2022-11-06T06:16:36.839Z,98.77
2022-11-06T06:19:03.041Z,98.59
2022-11-06T06:21:29.298Z,98.59
2022-11-06T06:23:55.506Z,98.58
2022-11-06T06:26:21.988Z,98.80
2022-11-06T06:28:48.520Z,98.76
2022-11-06T06:31:14.698Z,98.12
2022-11-06T06:33:40.909Z,98.27
2022-11-06T06:36:07.100Z,98.08
2022-11-06T06:41:23.421Z,97.87
2022-11-06T06:43:49.649Z,98.12
2022-11-06T06:46:15.842Z,97.72
2022-11-06T06:48:42.184Z,97.45
2022-11-06T06:51:08.373Z,97.33
2022-11-06T06:53:34.579Z,96.98
2022-11-06T06:56:00.884Z,97.21
2022-11-06T06:58:27.218Z,96.39
2022-11-06T07:00:53.487Z,96.26
2022-11-06T07:03:19.705Z,95.84
2022-11-06T07:05:46.750Z,95.84
2022-11-06T07:08:13.305Z,94.63
2022-11-06T07:10:39.961Z,94.40
2022-11-06T07:13:06.153Z,93.96
2022-11-06T07:15:32.347Z,94.02
2022-11-06T07:17:58.538Z,92.54
2022-11-06T07:20:24.732Z,93.56
2022-11-06T07:22:50.917Z,92.45
2022-11-06T07:25:17.110Z,92.29
2022-11-06T07:27:43.304Z,91.81
2022-11-06T07:30:09.541Z,91.76
2022-11-06T07:32:35.872Z,93.00
2022-11-06T07:35:02.051Z,92.12
2022-11-06T07:37:28.386Z,92.67
2022-11-06T07:39:54.619Z,92.08
2022-11-06T07:42:20.829Z,91.51
2022-11-06T07:44:47.014Z,91.47
2022-11-06T07:47:13.233Z,90.14
2022-11-06T07:49:39.417Z,89.59
2022-11-06T07:52:05.619Z,90.30
2022-11-06T07:54:31.805Z,89.07
2022-11-06T07:56:57.994Z,89.78
2022-11-06T07:59:24.177Z,88.57
2022-11-06T08:01:50.534Z,90.03
2022-11-06T08:04:16.788Z,90.27
2022-11-06T08:06:42.969Z,89.39
2022-11-06T08:09:09.158Z,89.05
2022-11-06T08:11:35.367Z,88.37
2022-11-06T08:14:01.555Z,87.76
2022-11-06T08:16:27.746Z,86.83
2022-11-06T08:18:53.942Z,86.98
2022-11-06T08:21:20.153Z,87.19
2022-11-06T08:23:46.328Z,87.83
2022-11-06T08:26:12.560Z,86.58
2022-11-06T08:28:38.783Z,86.97
2022-11-06T08:31:05.053Z,87.01
2022-11-06T08:33:31.270Z,87.62
2022-11-06T08:35:57.457Z,87.19
2022-11-06T08:38:26.630Z,87.48
2022-11-06T08:40:53.987Z,86.94
2022-11-06T08:43:20.336Z,85.76
2022-11-06T08:45:46.517Z,86.07
2022-11-06T08:48:12.703Z,86.50
2022-11-06T08:50:38.934Z,85.64
2022-11-06T08:53:06.220Z,85.24
2022-11-06T08:55:32.432Z,85.03
2022-11-06T08:57:58.621Z,83.97
2022-11-06T09:00:24.826Z,84.48
2022-11-06T09:02:51.247Z,84.70
2022-11-06T09:05:17.444Z,83.65
2022-11-06T09:07:43.635Z,82.77
2022-11-06T09:10:09.823Z,83.56
2022-11-06T09:12:36.018Z,83.04
2022-11-06T09:15:02.245Z,83.08
2022-11-06T09:17:28.417Z,83.03
2022-11-06T09:19:54.617Z,82.22
2022-11-06T09:22:20.875Z,81.59
2022-11-06T09:25:03.153Z,82.28
2022-11-06T09:27:30.535Z,80.92
2022-11-06T09:29:56.799Z,80.68
2022-11-06T09:35:27.370Z,80.81
2022-11-06T09:37:53.651Z,81.28
2022-11-06T09:40:20.178Z,80.33
2022-11-06T09:42:46.601Z,79.30
2022-11-06T09:45:12.926Z,78.70
2022-11-06T09:47:39.205Z,78.71
2022-11-06T09:50:05.462Z,78.84
2022-11-06T09:52:31.773Z,78.33
2022-11-06T09:55:00.735Z,77.45
2022-11-06T09:57:27.862Z,77.79
2022-11-06T09:59:54.127Z,77.95
2022-11-06T10:02:20.486Z,77.35
2022-11-06T10:04:47.168Z,76.68
2022-11-06T10:07:13.424Z,76.24
2022-11-06T10:09:39.669Z,76.03
2022-11-06T10:12:05.945Z,75.29
2022-11-06T10:14:32.199Z,75.27
2022-11-06T10:16:58.454Z,74.58
2022-11-06T10:19:24.815Z,74.91
2022-11-06T10:21:51.146Z,72.90
2022-11-06T10:24:17.396Z,71.98
2022-11-06T10:26:43.658Z,72.10
2022-11-06T10:29:09.916Z,72.15
2022-11-06T10:31:36.587Z,70.33
2022-11-06T10:34:02.838Z,69.05
2022-11-06T10:36:29.119Z,70.09
2022-11-06T10:38:55.371Z,70.21
2022-11-06T10:41:21.649Z,70.29
2022-11-06T10:43:47.906Z,70.79
2022-11-06T10:46:14.181Z,69.67
2022-11-06T10:48:41.725Z,69.30
2022-11-06T10:51:08.155Z,67.97
2022-11-06T10:53:34.410Z,67.21
2022-11-06T10:56:00.662Z,65.25
2022-11-06T10:58:26.918Z,63.85
2022-11-06T11:00:53.240Z,66.65
2022-11-06T11:03:19.725Z,65.99
2022-11-06T11:05:46.018Z,63.78
2022-11-06T11:08:12.461Z,63.31
2022-11-06T11:10:42.564Z,61.31
2022-11-06T11:13:09.168Z,61.93
2022-11-06T11:15:37.714Z,61.52
2022-11-06T11:18:04.092Z,62.04
2022-11-06T11:20:30.355Z,62.41
2022-11-06T11:22:56.824Z,61.45
2022-11-06T11:25:23.125Z,61.10
2022-11-06T11:27:49.387Z,60.92
2022-11-06T11:30:15.653Z,61.06
2022-11-06T11:32:41.928Z,60.82
2022-11-06T11:35:08.184Z,60.64
2022-11-06T11:37:36.016Z,59.28
2022-11-06T11:40:02.300Z,60.83
2022-11-06T11:42:28.667Z,61.14
2022-11-06T11:44:54.924Z,61.42
2022-11-06T11:47:21.221Z,61.12
2022-11-06T11:49:47.476Z,60.58
2022-11-06T11:52:13.734Z,60.64
2022-11-06T11:54:40.401Z,60.42
2022-11-06T11:57:07.541Z,60.73
2022-11-06T11:59:33.964Z,59.24
2022-11-06T12:02:00.320Z,60.29
2022-11-06T12:04:26.696Z,60.03
2022-11-06T12:06:52.965Z,59.43
2022-11-06T12:09:19.224Z,60.60
2022-11-06T12:11:45.636Z,60.61
2022-11-06T12:14:11.900Z,60.06
2022-11-06T12:16:38.476Z,58.59
2022-11-06T12:19:04.748Z,58.06
2022-11-06T12:21:31.058Z,58.13
2022-11-06T12:23:57.322Z,57.22
2022-11-06T12:26:23.678Z,57.10
2022-11-06T12:28:49.940Z,56.52
2022-11-06T12:31:16.218Z,56.07
2022-11-06T12:34:09.911Z,55.95
2022-11-06T12:36:28.735Z,58.11
2022-11-06T12:38:54.999Z,54.77
2022-11-06T12:41:21.256Z,56.05
2022-11-06T12:43:47.748Z,55.97
2022-11-06T12:46:14.030Z,54.98
2022-11-06T12:48:40.340Z,56.73
2022-11-06T12:51:06.631Z,55.54
2022-11-06T12:53:32.890Z,56.38
2022-11-06T12:55:59.285Z,57.35
2022-11-06T12:58:25.541Z,56.19
2022-11-06T13:00:51.851Z,55.76
2022-11-06T13:03:18.216Z,55.50
2022-11-06T13:05:44.497Z,55.58
2022-11-06T13:08:10.872Z,54.98
2022-11-06T13:10:37.315Z,54.21
2022-11-06T13:13:03.578Z,55.24
2022-11-06T13:15:29.820Z,55.08
2022-11-06T13:17:56.067Z,54.73
2022-11-06T13:20:22.451Z,54.48
2022-11-06T13:22:48.713Z,55.34
2022-11-06T13:25:14.986Z,55.77
2022-11-06T13:27:41.302Z,56.69
2022-11-06T13:30:07.571Z,55.10
2022-11-06T13:32:34.029Z,54.45
2022-11-06T13:35:00.293Z,56.59
2022-11-06T13:37:26.822Z,55.60
2022-11-06T13:39:53.073Z,56.32
2022-11-06T13:42:19.340Z,56.50
2022-11-06T13:44:45.592Z,56.85
2022-11-06T13:47:11.845Z,56.59
2022-11-06T13:49:38.106Z,56.87
2022-11-06T13:52:04.362Z,57.38
2022-11-06T13:54:30.975Z,57.28
2022-11-06T13:56:57.248Z,58.11
2022-11-06T13:59:24.051Z,58.13
2022-11-06T14:01:51.063Z,60.81
2022-11-06T14:04:17.425Z,61.99
2022-11-06T14:06:43.686Z,63.54
2022-11-06T14:09:09.946Z,64.13
2022-11-06T14:11:36.208Z,65.23
2022-11-06T14:14:02.527Z,66.47
2022-11-06T14:16:28.784Z,66.50
2022-11-06T14:18:55.230Z,65.90
2022-11-06T14:21:21.504Z,67.07
2022-11-06T14:23:47.793Z,67.73
2022-11-06T14:26:14.151Z,67.83
2022-11-06T14:28:40.441Z,68.70
2022-11-06T14:31:15.699Z,69.05
2022-11-06T14:33:43.494Z,70.05
2022-11-06T14:36:09.793Z,70.13
2022-11-06T14:38:36.065Z,70.05
2022-11-06T14:41:02.309Z,70.22
2022-11-06T14:43:28.650Z,70.95
2022-11-06T14:45:54.910Z,71.13
2022-11-06T14:48:21.395Z,72.15
2022-11-06T14:50:47.899Z,73.31
2022-11-06T14:53:14.153Z,74.43
2022-11-06T14:55:40.467Z,74.28
2022-11-06T14:58:06.770Z,75.51
2022-11-06T15:00:33.025Z,75.95
2022-11-06T15:02:59.276Z,75.95
2022-11-06T15:05:25.534Z,76.43
2022-11-06T15:08:07.820Z,77.13
2022-11-06T15:10:34.135Z,76.76
2022-11-06T15:13:00.478Z,76.58
2022-11-06T15:15:26.748Z,77.21
2022-11-06T15:17:53.005Z,77.57
2022-11-06T15:20:21.200Z,77.75
2022-11-06T15:22:47.492Z,77.53
2022-11-06T15:25:13.789Z,78.35
2022-11-06T15:27:43.031Z,78.68
2022-11-06T15:30:09.621Z,78.79
2022-11-06T15:32:35.903Z,79.14
2022-11-06T15:35:02.153Z,80.14
2022-11-06T15:37:28.409Z,80.37
2022-11-06T15:40:00.320Z,80.08
2022-11-06T15:42:27.057Z,81.01
2022-11-06T15:44:53.312Z,80.23
2022-11-06T15:47:19.888Z,80.62
2022-11-06T15:49:46.133Z,80.54
2022-11-06T15:52:12.387Z,80.67
2022-11-06T15:54:38.657Z,81.09
2022-11-06T15:57:04.920Z,80.86
2022-11-06T15:59:31.243Z,81.83
2022-11-06T16:01:57.562Z,82.26
2022-11-06T16:04:24.076Z,81.89
2022-11-06T16:06:50.264Z,81.63
2022-11-06T16:09:16.982Z,82.43
2022-11-06T16:11:46.340Z,82.81
2022-11-06T16:14:12.592Z,82.87
2022-11-06T16:16:38.839Z,83.86
2022-11-06T16:19:05.024Z,83.36
2022-11-06T16:21:32.139Z,83.44
2022-11-06T16:23:58.381Z,83.67
2022-11-06T16:26:24.629Z,84.50
2022-11-06T16:28:50.936Z,84.36
2022-11-06T16:31:17.292Z,84.26
2022-11-06T16:33:43.490Z,84.78
2022-11-06T16:36:11.328Z,86.25
2022-11-06T16:38:42.242Z,85.82
2022-11-06T16:41:08.643Z,86.02
2022-11-06T16:43:34.867Z,85.96
2022-11-06T16:46:05.216Z,86.70
2022-11-06T16:48:32.146Z,86.83
2022-11-06T16:50:59.529Z,86.69
2022-11-06T16:53:25.816Z,86.85
2022-11-06T16:55:52.011Z,87.20
2022-11-06T16:58:18.203Z,87.42
2022-11-06T17:00:44.438Z,88.40
2022-11-06T17:03:11.114Z,88.22
2022-11-06T17:05:37.395Z,89.36
2022-11-06T17:08:03.586Z,88.13
2022-11-06T17:10:29.800Z,88.10
2022-11-06T17:12:55.978Z,88.50
2022-11-06T17:15:25.314Z,88.87
2022-11-06T17:17:51.506Z,88.77
2022-11-06T17:20:17.702Z,88.76
2022-11-06T17:22:43.895Z,89.13
2022-11-06T17:25:10.116Z,88.57
2022-11-06T17:27:36.318Z,88.97
2022-11-06T17:30:02.550Z,88.78
2022-11-06T17:32:28.744Z,88.76
2022-11-06T17:34:54.939Z,88.64
2022-11-06T17:37:22.011Z,89.65
2022-11-06T17:39:48.348Z,90.23
2022-11-06T17:42:14.540Z,89.79
2022-11-06T17:44:40.802Z,90.51
2022-11-06T17:47:06.994Z,89.76
2022-11-06T17:49:33.173Z,90.28
2022-11-06T17:52:02.362Z,90.39
2022-11-06T17:54:28.586Z,91.00
2022-11-06T17:56:55.019Z,91.21
2022-11-06T17:59:21.275Z,90.62
2022-11-06T18:01:47.976Z,90.40
2022-11-06T18:04:14.297Z,91.16
2022-11-06T18:06:42.302Z,91.52
2022-11-06T18:09:08.591Z,91.60
2022-11-06T18:11:34.865Z,92.47
2022-11-06T18:14:01.272Z,93.07
2022-11-06T18:16:27.894Z,93.12
2022-11-06T18:18:54.126Z,93.14
2022-11-06T18:21:23.407Z,93.16
2022-11-06T18:23:49.659Z,93.98
2022-11-06T18:26:15.865Z,93.79
2022-11-06T18:28:42.044Z,93.75
2022-11-06T18:31:08.463Z,93.83
2022-11-06T18:36:25.019Z,94.09
2022-11-06T18:38:51.209Z,94.49
2022-11-06T18:41:17.407Z,94.59
2022-11-06T18:43:43.594Z,94.31
2022-11-06T18:46:09.787Z,94.48
2022-11-06T18:48:35.981Z,94.44
2022-11-06T18:51:02.260Z,93.92
2022-11-06T18:53:28.435Z,93.67
2022-11-06T18:55:54.620Z,94.08
2022-11-06T18:58:20.991Z,93.44
2022-11-06T19:00:48.292Z,93.63
2022-11-06T19:03:14.482Z,94.41
2022-11-06T19:05:40.686Z,93.81
2022-11-06T19:08:06.870Z,94.13
2022-11-06T19:10:33.076Z,94.13
2022-11-06T19:12:59.810Z,94.11
2022-11-06T19:15:26.301Z,93.81
2022-11-06T19:17:54.763Z,93.67
2022-11-06T19:20:21.106Z,93.51
2022-11-06T19:22:47.635Z,93.00
2022-11-06T19:25:13.829Z,93.50
2022-11-06T19:27:40.008Z,92.84
2022-11-06T19:30:06.235Z,92.23
2022-11-06T19:32:32.460Z,92.43
2022-11-06T19:34:58.975Z,92.47
2022-11-06T19:37:25.166Z,92.59
2022-11-06T19:39:53.245Z,91.99
2022-11-06T19:42:19.506Z,92.01
2022-11-06T19:44:45.694Z,92.83
2022-11-06T19:47:11.898Z,92.32
2022-11-06T19:49:38.098Z,92.28
2022-11-06T19:52:43.238Z,92.28
2022-11-06T19:54:50.490Z,93.02
2022-11-06T19:57:36.679Z,92.61
2022-11-06T20:00:07.173Z,92.26
2022-11-06T20:02:36.459Z,93.20
2022-11-06T20:05:02.729Z,92.87
2022-11-06T20:07:29.024Z,92.75
2022-11-06T20:09:57.222Z,92.48
2022-11-06T20:12:23.595Z,92.03
2022-11-06T20:14:50.536Z,92.25
2022-11-06T20:17:18.091Z,92.08
2022-11-06T20:19:44.348Z,91.89
2022-11-06T20:22:10.732Z,91.79
2022-11-06T20:24:37.864Z,91.50
2022-11-06T20:27:07.359Z,91.31
2022-11-06T20:29:37.298Z,91.43
2022-11-06T20:32:03.539Z,91.75
2022-11-06T20:34:29.716Z,91.53
2022-11-06T20:36:56.243Z,91.12
2022-11-06T20:39:22.426Z,91.14
2022-11-06T20:41:48.797Z,90.13
2022-11-06T20:44:15.021Z,90.81
2022-11-06T20:46:41.286Z,90.94
2022-11-06T20:49:08.486Z,90.62
2022-11-06T20:51:48.241Z,91.13
2022-11-06T20:54:20.303Z,91.02
2022-11-06T20:56:48.360Z,91.34
2022-11-06T20:59:15.973Z,91.06
2022-11-06T21:01:42.956Z,90.57
2022-11-06T21:04:09.578Z,91.06
2022-11-06T21:06:38.721Z,90.70
2022-11-06T21:09:05.000Z,91.04
2022-11-06T21:11:31.195Z,90.23
2022-11-06T21:13:57.429Z,90.69
2022-11-06T21:16:24.256Z,90.22
2022-11-06T21:18:50.524Z,89.98
2022-11-06T21:21:16.832Z,89.63
2022-11-06T21:23:43.070Z,89.35
2022-11-06T21:26:09.246Z,88.98
2022-11-06T21:28:35.456Z,89.63
2022-11-06T21:31:01.649Z,89.49
2022-11-06T21:33:28.113Z,89.05
2022-11-06T21:35:54.332Z,89.62
2022-11-06T21:38:20.509Z,89.35
2022-11-06T21:40:46.700Z,88.95
2022-11-06T21:43:13.244Z,89.00
2022-11-06T22:00:14.185Z,89.12
2022-11-06T22:02:40.921Z,88.67
2022-11-06T22:05:07.234Z,88.85
2022-11-06T22:07:33.431Z,88.37
2022-11-06T22:09:59.628Z,88.13
2022-11-06T22:12:25.805Z,87.92
2022-11-06T22:14:52.209Z,87.64
2022-11-06T22:17:18.405Z,87.66
2022-11-06T22:19:45.001Z,87.36
2022-11-06T22:22:11.186Z,87.50
2022-11-06T22:24:39.197Z,87.35
2022-11-06T22:27:05.478Z,87.14
2022-11-06T22:29:31.656Z,87.06
2022-11-06T22:31:57.833Z,87.26
2022-11-06T22:34:24.013Z,87.23
2022-11-06T22:36:50.202Z,87.20
2022-11-06T22:39:16.455Z,87.16
2022-11-06T22:41:42.653Z,86.25
2022-11-06T22:44:09.033Z,86.10
2022-11-06T22:46:35.301Z,85.90
2022-11-06T22:49:01.830Z,85.35
2022-11-06T22:51:28.020Z,85.01
2022-11-06T22:53:54.351Z,85.01
2022-11-06T22:56:20.780Z,84.50
2022-11-06T22:58:46.970Z,84.99
2022-11-06T23:01:13.161Z,84.40
2022-11-06T23:03:39.662Z,84.60
2022-11-06T23:06:06.172Z,84.42
2022-11-06T23:08:32.789Z,84.05
2022-11-06T23:10:58.996Z,83.96
2022-11-06T23:13:25.184Z,84.11
2022-11-06T23:15:51.582Z,83.56
2022-11-06T23:18:17.778Z,84.12
2022-11-06T23:20:44.033Z,84.54
2022-11-06T23:23:10.350Z,84.80
2022-11-06T23:25:36.821Z,86.09
2022-11-06T23:28:03.006Z,84.97
2022-11-06T23:30:32.182Z,84.45
2022-11-06T23:32:58.367Z,85.58
2022-11-06T23:35:30.894Z,85.49
2022-11-06T23:37:58.596Z,85.57
2022-11-06T23:40:24.785Z,84.53
2022-11-06T23:42:51.027Z,84.18
2022-11-06T23:45:35.741Z,83.90
2022-11-06T23:48:07.468Z,84.41
2022-11-06T23:50:34.727Z,85.26
2022-11-06T23:53:00.917Z,85.23
2022-11-06T23:55:27.148Z,84.65
2022-11-06T23:57:53.343Z,84.72
